sensor_id;sensor_type;location;lat;lon;timestamp;P1;durP1;ratioP1;P2;durP2;ratioP2
69083;SDS011;56185;48.526;9.044;2022-10-31T00:00:44;8.55;;;5.07;;
69083;SDS011;56185;48.526;9.044;2022-10-31T00:03:09;13.32;;;5.18;;
69083;SDS011;56185;48.526;9.044;2022-10-31T00:05:34;9.97;;;4.60;;
69083;SDS011;56185;48.526;9.044;2022-10-31T00:07:59;8.67;;;4.17;;
69083;SDS011;56185;48.526;9.044;2022-10-31T00:10:25;10.80;;;4.33;;
69083;SDS011;56185;48.526;9.044;2022-10-31T00:12:51;8.03;;;4.40;;
69083;SDS011;56185;48.526;9.044;2022-10-31T00:15:16;10.13;;;4.95;;
69083;SDS011;56185;48.526;9.044;2022-10-31T00:17:42;6.75;;;4.20;;
69083;SDS011;56185;48.526;9.044;2022-10-31T00:20:07;7.68;;;4.47;;
69083;SDS011;56185;48.526;9.044;2022-10-31T00:22:33;9.10;;;4.35;;
69083;SDS011;56185;48.526;9.044;2022-10-31T00:24:58;9.43;;;4.72;;
69083;SDS011;56185;48.526;9.044;2022-10-31T00:27:23;7.87;;;4.60;;
69083;SDS011;56185;48.526;9.044;2022-10-31T00:29:49;8.47;;;4.57;;
69083;SDS011;56185;48.526;9.044;2022-10-31T00:32:14;10.10;;;4.70;;
69083;SDS011;56185;48.526;9.044;2022-10-31T00:34:39;5.97;;;4.17;;
69083;SDS011;56185;48.526;9.044;2022-10-31T00:37:04;7.13;;;4.40;;
69083;SDS011;56185;48.526;9.044;2022-10-31T00:39:29;5.50;;;3.60;;
69083;SDS011;56185;48.526;9.044;2022-10-31T00:41:55;7.07;;;4.10;;
69083;SDS011;56185;48.526;9.044;2022-10-31T00:44:20;6.43;;;3.93;;
69083;SDS011;56185;48.526;9.044;2022-10-31T00:46:45;8.10;;;3.50;;
69083;SDS011;56185;48.526;9.044;2022-10-31T00:49:10;7.27;;;4.00;;
69083;SDS011;56185;48.526;9.044;2022-10-31T00:51:36;7.47;;;3.57;;
69083;SDS011;56185;48.526;9.044;2022-10-31T00:54:01;8.57;;;4.27;;
69083;SDS011;56185;48.526;9.044;2022-10-31T00:56:26;10.63;;;4.00;;
69083;SDS011;56185;48.526;9.044;2022-10-31T00:58:51;10.60;;;4.17;;
69083;SDS011;56185;48.526;9.044;2022-10-31T01:01:16;7.43;;;3.70;;
69083;SDS011;56185;48.526;9.044;2022-10-31T01:03:42;7.23;;;4.17;;
69083;SDS011;56185;48.526;9.044;2022-10-31T01:06:08;6.97;;;4.10;;
69083;SDS011;56185;48.526;9.044;2022-10-31T01:08:35;5.93;;;4.10;;
69083;SDS011;56185;48.526;9.044;2022-10-31T01:11:06;8.63;;;3.95;;
69083;SDS011;56185;48.526;9.044;2022-10-31T01:13:34;7.63;;;3.90;;
69083;SDS011;56185;48.526;9.044;2022-10-31T01:16:00;8.27;;;4.10;;
69083;SDS011;56185;48.526;9.044;2022-10-31T01:18:26;5.40;;;3.60;;
69083;SDS011;56185;48.526;9.044;2022-10-31T01:21:02;6.32;;;3.65;;
69083;SDS011;56185;48.526;9.044;2022-10-31T01:23:29;7.45;;;3.80;;
69083;SDS011;56185;48.526;9.044;2022-10-31T01:26:02;7.05;;;3.70;;
69083;SDS011;56185;48.526;9.044;2022-10-31T01:28:29;10.75;;;3.90;;
69083;SDS011;56185;48.526;9.044;2022-10-31T01:30:55;7.23;;;3.53;;
69083;SDS011;56185;48.526;9.044;2022-10-31T01:33:20;6.70;;;3.42;;
69083;SDS011;56185;48.526;9.044;2022-10-31T01:35:45;6.43;;;3.65;;
69083;SDS011;56185;48.526;9.044;2022-10-31T01:38:10;5.70;;;3.30;;
69083;SDS011;56185;48.526;9.044;2022-10-31T01:40:36;7.13;;;3.53;;
69083;SDS011;56185;48.526;9.044;2022-10-31T01:43:01;8.50;;;3.30;;
69083;SDS011;56185;48.526;9.044;2022-10-31T01:45:26;7.33;;;4.20;;
69083;SDS011;56185;48.526;9.044;2022-10-31T01:47:51;7.60;;;3.63;;
69083;SDS011;56185;48.526;9.044;2022-10-31T01:50:26;7.22;;;4.00;;
69083;SDS011;56185;48.526;9.044;2022-10-31T01:52:56;6.60;;;3.85;;
69083;SDS011;56185;48.526;9.044;2022-10-31T01:55:43;4.78;;;3.47;;
69083;SDS011;56185;48.526;9.044;2022-10-31T01:58:11;6.50;;;3.80;;
69083;SDS011;56185;48.526;9.044;2022-10-31T02:00:39;9.70;;;4.05;;
69083;SDS011;56185;48.526;9.044;2022-10-31T02:03:09;8.23;;;3.90;;
69083;SDS011;56185;48.526;9.044;2022-10-31T02:05:34;5.28;;;3.80;;
69083;SDS011;56185;48.526;9.044;2022-10-31T02:08:17;6.53;;;3.70;;
69083;SDS011;56185;48.526;9.044;2022-10-31T02:10:46;9.65;;;3.90;;
69083;SDS011;56185;48.526;9.044;2022-10-31T02:13:11;6.18;;;3.70;;
69083;SDS011;56185;48.526;9.044;2022-10-31T02:15:38;5.82;;;4.00;;
69083;SDS011;56185;48.526;9.044;2022-10-31T02:18:05;7.60;;;4.15;;
69083;SDS011;56185;48.526;9.044;2022-10-31T02:20:40;7.78;;;3.78;;
69083;SDS011;56185;48.526;9.044;2022-10-31T02:31:50;4.32;;;3.28;;
69083;SDS011;56185;48.526;9.044;2022-10-31T02:37:14;5.78;;;3.22;;
69083;SDS011;56185;48.526;9.044;2022-10-31T02:45:10;7.22;;;3.33;;
69083;SDS011;56185;48.526;9.044;2022-10-31T02:47:41;5.60;;;3.35;;
69083;SDS011;56185;48.526;9.044;2022-10-31T02:50:22;5.05;;;3.25;;
69083;SDS011;56185;48.526;9.044;2022-10-31T02:52:51;4.97;;;3.22;;
69083;SDS011;56185;48.526;9.044;2022-10-31T02:57:55;5.80;;;3.60;;
69083;SDS011;56185;48.526;9.044;2022-10-31T03:00:21;6.15;;;3.60;;
69083;SDS011;56185;48.526;9.044;2022-10-31T03:03:20;5.18;;;3.60;;
69083;SDS011;56185;48.526;9.044;2022-10-31T03:06:03;9.85;;;3.80;;
69083;SDS011;56185;48.526;9.044;2022-10-31T03:09:13;4.97;;;3.20;;
69083;SDS011;56185;48.526;9.044;2022-10-31T03:12:07;8.10;;;3.55;;
69083;SDS011;56185;48.526;9.044;2022-10-31T03:14:40;7.13;;;3.47;;
69083;SDS011;56185;48.526;9.044;2022-10-31T03:17:09;18.50;;;4.30;;
69083;SDS011;56185;48.526;9.044;2022-10-31T03:19:43;5.03;;;3.30;;
69083;SDS011;56185;48.526;9.044;2022-10-31T03:24:41;9.40;;;3.55;;
69083;SDS011;56185;48.526;9.044;2022-10-31T03:27:08;6.68;;;3.30;;
69083;SDS011;56185;48.526;9.044;2022-10-31T03:29:36;5.30;;;3.25;;
69083;SDS011;56185;48.526;9.044;2022-10-31T03:32:06;5.50;;;3.15;;
69083;SDS011;56185;48.526;9.044;2022-10-31T03:34:35;6.85;;;3.28;;
69083;SDS011;56185;48.526;9.044;2022-10-31T03:37:03;5.20;;;3.47;;
69083;SDS011;56185;48.526;9.044;2022-10-31T03:39:31;7.45;;;3.20;;
69083;SDS011;56185;48.526;9.044;2022-10-31T03:41:59;4.55;;;3.20;;
69083;SDS011;56185;48.526;9.044;2022-10-31T03:44:30;5.43;;;2.90;;
69083;SDS011;56185;48.526;9.044;2022-10-31T03:46:58;8.23;;;3.75;;
69083;SDS011;56185;48.526;9.044;2022-10-31T03:49:23;6.72;;;3.33;;
69083;SDS011;56185;48.526;9.044;2022-10-31T03:51:57;5.53;;;3.22;;
69083;SDS011;56185;48.526;9.044;2022-10-31T03:54:30;4.07;;;3.15;;
69083;SDS011;56185;48.526;9.044;2022-10-31T03:57:08;5.47;;;3.17;;
69083;SDS011;56185;48.526;9.044;2022-10-31T03:59:58;7.60;;;3.22;;
69083;SDS011;56185;48.526;9.044;2022-10-31T04:02:29;5.32;;;3.38;;
69083;SDS011;56185;48.526;9.044;2022-10-31T04:04:57;4.88;;;3.15;;
69083;SDS011;56185;48.526;9.044;2022-10-31T04:07:23;4.82;;;3.15;;
69083;SDS011;56185;48.526;9.044;2022-10-31T04:09:53;4.50;;;3.30;;
69083;SDS011;56185;48.526;9.044;2022-10-31T04:12:18;6.13;;;3.38;;
69083;SDS011;56185;48.526;9.044;2022-10-31T04:14:45;10.20;;;3.28;;
69083;SDS011;56185;48.526;9.044;2022-10-31T04:17:13;3.95;;;2.80;;
69083;SDS011;56185;48.526;9.044;2022-10-31T04:19:42;5.18;;;3.15;;
69083;SDS011;56185;48.526;9.044;2022-10-31T04:22:07;5.90;;;3.17;;
69083;SDS011;56185;48.526;9.044;2022-10-31T04:24:32;6.88;;;3.33;;
69083;SDS011;56185;48.526;9.044;2022-10-31T04:26:58;6.90;;;3.17;;
69083;SDS011;56185;48.526;9.044;2022-10-31T04:29:23;7.50;;;3.45;;
69083;SDS011;56185;48.526;9.044;2022-10-31T04:31:48;5.97;;;3.50;;
69083;SDS011;56185;48.526;9.044;2022-10-31T04:34:14;4.90;;;3.03;;
69083;SDS011;56185;48.526;9.044;2022-10-31T04:36:40;7.65;;;3.83;;
69083;SDS011;56185;48.526;9.044;2022-10-31T04:39:05;6.80;;;3.90;;
69083;SDS011;56185;48.526;9.044;2022-10-31T04:41:30;6.55;;;3.25;;
69083;SDS011;56185;48.526;9.044;2022-10-31T04:43:55;7.07;;;3.87;;
69083;SDS011;56185;48.526;9.044;2022-10-31T04:46:20;7.85;;;3.70;;
69083;SDS011;56185;48.526;9.044;2022-10-31T04:48:46;6.68;;;3.35;;
69083;SDS011;56185;48.526;9.044;2022-10-31T04:51:11;4.85;;;3.38;;
69083;SDS011;56185;48.526;9.044;2022-10-31T04:53:36;5.80;;;3.65;;
69083;SDS011;56185;48.526;9.044;2022-10-31T04:56:02;5.20;;;3.03;;
69083;SDS011;56185;48.526;9.044;2022-10-31T04:58:27;7.32;;;3.35;;
69083;SDS011;56185;48.526;9.044;2022-10-31T05:00:53;6.32;;;3.30;;
69083;SDS011;56185;48.526;9.044;2022-10-31T05:03:19;4.97;;;3.33;;
69083;SDS011;56185;48.526;9.044;2022-10-31T05:05:44;5.72;;;3.30;;
69083;SDS011;56185;48.526;9.044;2022-10-31T05:08:10;4.15;;;2.97;;
69083;SDS011;56185;48.526;9.044;2022-10-31T05:10:35;4.13;;;3.00;;
69083;SDS011;56185;48.526;9.044;2022-10-31T05:13:02;4.47;;;3.15;;
69083;SDS011;56185;48.526;9.044;2022-10-31T05:15:29;9.05;;;3.40;;
69083;SDS011;56185;48.526;9.044;2022-10-31T05:17:54;5.03;;;3.28;;
69083;SDS011;56185;48.526;9.044;2022-10-31T05:20:21;6.78;;;3.60;;
69083;SDS011;56185;48.526;9.044;2022-10-31T05:22:49;5.55;;;3.25;;
69083;SDS011;56185;48.526;9.044;2022-10-31T05:25:16;6.80;;;3.42;;
69083;SDS011;56185;48.526;9.044;2022-10-31T05:27:43;9.55;;;3.40;;
69083;SDS011;56185;48.526;9.044;2022-10-31T05:30:11;5.28;;;3.30;;
69083;SDS011;56185;48.526;9.044;2022-10-31T05:32:42;4.70;;;3.30;;
69083;SDS011;56185;48.526;9.044;2022-10-31T05:35:10;5.90;;;3.08;;
69083;SDS011;56185;48.526;9.044;2022-10-31T05:37:37;4.65;;;3.60;;
69083;SDS011;56185;48.526;9.044;2022-10-31T05:40:04;6.40;;;3.20;;
69083;SDS011;56185;48.526;9.044;2022-10-31T05:42:31;5.53;;;3.63;;
69083;SDS011;56185;48.526;9.044;2022-10-31T05:44:56;4.07;;;3.07;;
69083;SDS011;56185;48.526;9.044;2022-10-31T05:47:22;5.97;;;3.30;;
69083;SDS011;56185;48.526;9.044;2022-10-31T05:49:47;5.28;;;3.38;;
69083;SDS011;56185;48.526;9.044;2022-10-31T05:52:12;5.50;;;3.20;;
69083;SDS011;56185;48.526;9.044;2022-10-31T05:54:38;4.20;;;3.20;;
69083;SDS011;56185;48.526;9.044;2022-10-31T05:57:03;5.18;;;3.60;;
69083;SDS011;56185;48.526;9.044;2022-10-31T05:59:28;8.40;;;3.60;;
69083;SDS011;56185;48.526;9.044;2022-10-31T06:01:54;8.10;;;3.33;;
69083;SDS011;56185;48.526;9.044;2022-10-31T06:04:19;5.63;;;3.60;;
69083;SDS011;56185;48.526;9.044;2022-10-31T06:06:44;4.20;;;3.10;;
69083;SDS011;56185;48.526;9.044;2022-10-31T06:09:09;8.17;;;3.30;;
69083;SDS011;56185;48.526;9.044;2022-10-31T06:11:35;4.90;;;3.05;;
69083;SDS011;56185;48.526;9.044;2022-10-31T06:14:00;4.77;;;2.90;;
69083;SDS011;56185;48.526;9.044;2022-10-31T06:16:25;7.13;;;3.05;;
69083;SDS011;56185;48.526;9.044;2022-10-31T06:18:50;7.20;;;2.92;;
69083;SDS011;56185;48.526;9.044;2022-10-31T06:21:16;4.73;;;2.93;;
69083;SDS011;56185;48.526;9.044;2022-10-31T06:23:41;6.95;;;3.40;;
69083;SDS011;56185;48.526;9.044;2022-10-31T06:26:06;4.73;;;3.23;;
69083;SDS011;56185;48.526;9.044;2022-10-31T06:28:31;8.97;;;3.20;;
69083;SDS011;56185;48.526;9.044;2022-10-31T06:30:57;6.20;;;3.53;;
69083;SDS011;56185;48.526;9.044;2022-10-31T06:33:22;5.65;;;3.20;;
69083;SDS011;56185;48.526;9.044;2022-10-31T06:35:47;7.15;;;3.38;;
69083;SDS011;56185;48.526;9.044;2022-10-31T06:38:13;5.32;;;3.38;;
69083;SDS011;56185;48.526;9.044;2022-10-31T06:40:39;4.70;;;3.25;;
69083;SDS011;56185;48.526;9.044;2022-10-31T06:43:04;6.75;;;3.70;;
69083;SDS011;56185;48.526;9.044;2022-10-31T06:45:29;7.20;;;3.80;;
69083;SDS011;56185;48.526;9.044;2022-10-31T06:47:55;6.55;;;3.72;;
69083;SDS011;56185;48.526;9.044;2022-10-31T06:50:21;8.43;;;3.60;;
69083;SDS011;56185;48.526;9.044;2022-10-31T06:52:51;5.97;;;3.55;;
69083;SDS011;56185;48.526;9.044;2022-10-31T06:55:17;6.50;;;3.72;;
69083;SDS011;56185;48.526;9.044;2022-10-31T06:57:42;7.10;;;3.70;;
69083;SDS011;56185;48.526;9.044;2022-10-31T07:00:14;7.93;;;4.30;;
69083;SDS011;56185;48.526;9.044;2022-10-31T07:02:40;7.22;;;3.50;;
69083;SDS011;56185;48.526;9.044;2022-10-31T07:05:05;6.93;;;3.87;;
69083;SDS011;56185;48.526;9.044;2022-10-31T07:07:30;5.32;;;3.35;;
69083;SDS011;56185;48.526;9.044;2022-10-31T07:09:56;8.80;;;3.47;;
69083;SDS011;56185;48.526;9.044;2022-10-31T07:12:21;6.17;;;3.40;;
69083;SDS011;56185;48.526;9.044;2022-10-31T07:14:46;5.90;;;3.47;;
69083;SDS011;56185;48.526;9.044;2022-10-31T07:17:11;6.93;;;3.60;;
69083;SDS011;56185;48.526;9.044;2022-10-31T07:19:36;10.13;;;3.50;;
69083;SDS011;56185;48.526;9.044;2022-10-31T07:22:02;8.93;;;3.60;;
69083;SDS011;56185;48.526;9.044;2022-10-31T07:24:27;5.23;;;3.43;;
69083;SDS011;56185;48.526;9.044;2022-10-31T07:26:52;7.43;;;3.57;;
69083;SDS011;56185;48.526;9.044;2022-10-31T07:29:17;6.97;;;4.00;;
69083;SDS011;56185;48.526;9.044;2022-10-31T07:31:44;7.50;;;3.97;;
69083;SDS011;56185;48.526;9.044;2022-10-31T07:34:11;7.47;;;3.53;;
69083;SDS011;56185;48.526;9.044;2022-10-31T07:36:36;6.87;;;3.27;;
69083;SDS011;56185;48.526;9.044;2022-10-31T07:39:01;5.60;;;3.60;;
69083;SDS011;56185;48.526;9.044;2022-10-31T07:41:26;9.48;;;4.15;;
69083;SDS011;56185;48.526;9.044;2022-10-31T07:43:51;6.10;;;3.70;;
69083;SDS011;56185;48.526;9.044;2022-10-31T07:46:17;6.30;;;3.67;;
69083;SDS011;56185;48.526;9.044;2022-10-31T07:48:42;7.20;;;3.90;;
69083;SDS011;56185;48.526;9.044;2022-10-31T07:51:07;7.87;;;4.07;;
69083;SDS011;56185;48.526;9.044;2022-10-31T07:53:32;6.43;;;3.80;;
69083;SDS011;56185;48.526;9.044;2022-10-31T07:55:58;8.83;;;3.60;;
69083;SDS011;56185;48.526;9.044;2022-10-31T07:58:23;5.37;;;3.37;;
69083;SDS011;56185;48.526;9.044;2022-10-31T08:00:48;7.03;;;3.83;;
69083;SDS011;56185;48.526;9.044;2022-10-31T08:03:14;8.60;;;4.53;;
69083;SDS011;56185;48.526;9.044;2022-10-31T08:05:41;6.57;;;3.80;;
69083;SDS011;56185;48.526;9.044;2022-10-31T08:08:07;5.93;;;3.22;;
69083;SDS011;56185;48.526;9.044;2022-10-31T08:10:33;8.02;;;4.00;;
69083;SDS011;56185;48.526;9.044;2022-10-31T08:13:01;8.35;;;3.90;;
69083;SDS011;56185;48.526;9.044;2022-10-31T08:15:31;6.78;;;3.25;;
69083;SDS011;56185;48.526;9.044;2022-10-31T08:17:57;9.18;;;3.80;;
69083;SDS011;56185;48.526;9.044;2022-10-31T08:20:22;6.93;;;3.80;;
69083;SDS011;56185;48.526;9.044;2022-10-31T08:25:19;6.68;;;3.53;;
69083;SDS011;56185;48.526;9.044;2022-10-31T08:27:48;9.13;;;3.95;;
69083;SDS011;56185;48.526;9.044;2022-10-31T08:30:17;4.78;;;3.50;;
69083;SDS011;56185;48.526;9.044;2022-10-31T08:32:43;12.32;;;3.80;;
69083;SDS011;56185;48.526;9.044;2022-10-31T08:35:08;8.33;;;3.80;;
69083;SDS011;56185;48.526;9.044;2022-10-31T08:37:33;6.18;;;3.60;;
69083;SDS011;56185;48.526;9.044;2022-10-31T08:39:59;6.43;;;4.17;;
69083;SDS011;56185;48.526;9.044;2022-10-31T08:42:24;7.50;;;3.70;;
69083;SDS011;56185;48.526;9.044;2022-10-31T08:44:49;12.87;;;3.93;;
69083;SDS011;56185;48.526;9.044;2022-10-31T08:47:14;7.35;;;3.90;;
69083;SDS011;56185;48.526;9.044;2022-10-31T08:49:40;9.13;;;3.60;;
69083;SDS011;56185;48.526;9.044;2022-10-31T08:52:05;10.00;;;4.40;;
69083;SDS011;56185;48.526;9.044;2022-10-31T08:54:30;8.23;;;3.77;;
69083;SDS011;56185;48.526;9.044;2022-10-31T08:56:55;9.27;;;3.90;;
69083;SDS011;56185;48.526;9.044;2022-10-31T08:59:21;8.50;;;3.83;;
69083;SDS011;56185;48.526;9.044;2022-10-31T09:01:46;6.35;;;3.80;;
69083;SDS011;56185;48.526;9.044;2022-10-31T09:04:11;7.03;;;3.90;;
69083;SDS011;56185;48.526;9.044;2022-10-31T09:06:37;8.18;;;4.25;;
69083;SDS011;56185;48.526;9.044;2022-10-31T09:09:02;10.35;;;3.90;;
69083;SDS011;56185;48.526;9.044;2022-10-31T09:11:29;7.13;;;3.92;;
69083;SDS011;56185;48.526;9.044;2022-10-31T09:13:55;6.80;;;3.72;;
69083;SDS011;56185;48.526;9.044;2022-10-31T09:16:20;6.57;;;4.00;;
69083;SDS011;56185;48.526;9.044;2022-10-31T09:18:45;7.20;;;3.90;;
69083;SDS011;56185;48.526;9.044;2022-10-31T09:21:10;6.53;;;4.00;;
69083;SDS011;56185;48.526;9.044;2022-10-31T09:23:35;7.57;;;3.80;;
69083;SDS011;56185;48.526;9.044;2022-10-31T09:26:01;5.65;;;3.85;;
69083;SDS011;56185;48.526;9.044;2022-10-31T09:28:27;7.35;;;4.28;;
69083;SDS011;56185;48.526;9.044;2022-10-31T09:30:52;8.37;;;4.03;;
69083;SDS011;56185;48.526;9.044;2022-10-31T09:33:18;6.60;;;4.00;;
69083;SDS011;56185;48.526;9.044;2022-10-31T09:35:44;6.25;;;3.97;;
69083;SDS011;56185;48.526;9.044;2022-10-31T09:43:14;9.10;;;4.25;;
69083;SDS011;56185;48.526;9.044;2022-10-31T09:51:20;6.28;;;4.10;;
69083;SDS011;56185;48.526;9.044;2022-10-31T09:53:51;7.53;;;3.85;;
69083;SDS011;56185;48.526;9.044;2022-10-31T09:56:18;8.20;;;3.72;;
69083;SDS011;56185;48.526;9.044;2022-10-31T09:58:47;7.90;;;4.15;;
69083;SDS011;56185;48.526;9.044;2022-10-31T10:06:50;6.30;;;3.90;;
69083;SDS011;56185;48.526;9.044;2022-10-31T10:09:16;8.70;;;4.10;;
69083;SDS011;56185;48.526;9.044;2022-10-31T10:12:06;6.80;;;3.75;;
69083;SDS011;56185;48.526;9.044;2022-10-31T10:17:36;6.38;;;3.60;;
69083;SDS011;56185;48.526;9.044;2022-10-31T10:22:55;7.15;;;3.60;;
69083;SDS011;56185;48.526;9.044;2022-10-31T10:25:40;10.02;;;4.20;;
69083;SDS011;56185;48.526;9.044;2022-10-31T10:30:52;9.95;;;3.55;;
69083;SDS011;56185;48.526;9.044;2022-10-31T10:33:27;11.30;;;4.00;;
69083;SDS011;56185;48.526;9.044;2022-10-31T10:36:01;8.25;;;3.90;;
69083;SDS011;56185;48.526;9.044;2022-10-31T10:41:17;9.98;;;3.55;;
69083;SDS011;56185;48.526;9.044;2022-10-31T10:43:44;10.93;;;3.70;;
69083;SDS011;56185;48.526;9.044;2022-10-31T10:56:51;10.05;;;3.28;;
69083;SDS011;56185;48.526;9.044;2022-10-31T10:59:21;9.43;;;3.65;;
69083;SDS011;56185;48.526;9.044;2022-10-31T11:01:48;8.07;;;3.40;;
69083;SDS011;56185;48.526;9.044;2022-10-31T11:07:12;7.10;;;3.47;;
69083;SDS011;56185;48.526;9.044;2022-10-31T11:09:37;9.48;;;4.20;;
69083;SDS011;56185;48.526;9.044;2022-10-31T11:12:10;8.70;;;4.47;;
69083;SDS011;56185;48.526;9.044;2022-10-31T11:14:54;12.02;;;4.05;;
69083;SDS011;56185;48.526;9.044;2022-10-31T11:17:25;8.70;;;3.85;;
69083;SDS011;56185;48.526;9.044;2022-10-31T11:19:59;12.68;;;3.75;;
69083;SDS011;56185;48.526;9.044;2022-10-31T11:22:46;12.10;;;3.85;;
69083;SDS011;56185;48.526;9.044;2022-10-31T11:25:25;9.25;;;3.53;;
69083;SDS011;56185;48.526;9.044;2022-10-31T11:28:04;9.60;;;3.50;;
69083;SDS011;56185;48.526;9.044;2022-10-31T11:30:35;14.23;;;3.78;;
69083;SDS011;56185;48.526;9.044;2022-10-31T11:33:14;6.68;;;3.22;;
69083;SDS011;56185;48.526;9.044;2022-10-31T11:35:43;10.75;;;3.38;;
69083;SDS011;56185;48.526;9.044;2022-10-31T11:38:12;9.25;;;3.50;;
69083;SDS011;56185;48.526;9.044;2022-10-31T11:40:54;10.15;;;3.63;;
69083;SDS011;56185;48.526;9.044;2022-10-31T11:43:24;6.90;;;3.50;;
69083;SDS011;56185;48.526;9.044;2022-10-31T11:45:50;6.70;;;3.78;;
69083;SDS011;56185;48.526;9.044;2022-10-31T11:48:17;7.32;;;3.00;;
69083;SDS011;56185;48.526;9.044;2022-10-31T11:50:47;9.40;;;3.60;;
69083;SDS011;56185;48.526;9.044;2022-10-31T11:53:16;9.25;;;3.47;;
69083;SDS011;56185;48.526;9.044;2022-10-31T11:55:44;6.22;;;3.00;;
69083;SDS011;56185;48.526;9.044;2022-10-31T11:58:19;9.50;;;3.40;;
69083;SDS011;56185;48.526;9.044;2022-10-31T12:00:51;8.30;;;3.50;;
69083;SDS011;56185;48.526;9.044;2022-10-31T12:03:26;5.93;;;3.10;;
69083;SDS011;56185;48.526;9.044;2022-10-31T12:08:46;7.68;;;3.42;;
69083;SDS011;56185;48.526;9.044;2022-10-31T12:11:32;13.07;;;3.30;;
69083;SDS011;56185;48.526;9.044;2022-10-31T12:14:33;7.05;;;3.10;;
69083;SDS011;56185;48.526;9.044;2022-10-31T12:17:26;6.38;;;3.50;;
69083;SDS011;56185;48.526;9.044;2022-10-31T12:23:14;6.18;;;3.05;;
69083;SDS011;56185;48.526;9.044;2022-10-31T12:39:35;7.82;;;3.03;;
69083;SDS011;56185;48.526;9.044;2022-10-31T12:42:13;8.20;;;2.97;;
69083;SDS011;56185;48.526;9.044;2022-10-31T12:53:28;10.88;;;3.35;;
69083;SDS011;56185;48.526;9.044;2022-10-31T12:56:05;10.63;;;3.38;;
69083;SDS011;56185;48.526;9.044;2022-10-31T12:58:54;7.63;;;3.20;;
69083;SDS011;56185;48.526;9.044;2022-10-31T13:01:29;5.88;;;3.08;;
69083;SDS011;56185;48.526;9.044;2022-10-31T13:06:36;6.43;;;3.00;;
69083;SDS011;56185;48.526;9.044;2022-10-31T13:09:10;7.50;;;3.22;;
69083;SDS011;56185;48.526;9.044;2022-10-31T13:11:43;10.05;;;3.30;;
69083;SDS011;56185;48.526;9.044;2022-10-31T13:14:29;7.68;;;3.17;;
69083;SDS011;56185;48.526;9.044;2022-10-31T13:16:58;7.70;;;3.15;;
69083;SDS011;56185;48.526;9.044;2022-10-31T13:19:27;7.78;;;3.05;;
69083;SDS011;56185;48.526;9.044;2022-10-31T13:27:22;7.60;;;3.28;;
69083;SDS011;56185;48.526;9.044;2022-10-31T13:32:42;8.40;;;3.38;;
69083;SDS011;56185;48.526;9.044;2022-10-31T13:35:12;5.80;;;3.20;;
69083;SDS011;56185;48.526;9.044;2022-10-31T13:37:50;6.53;;;3.20;;
69083;SDS011;56185;48.526;9.044;2022-10-31T13:40:38;8.00;;;3.65;;
69083;SDS011;56185;48.526;9.044;2022-10-31T13:43:06;6.75;;;3.30;;
69083;SDS011;56185;48.526;9.044;2022-10-31T13:45:51;6.97;;;3.20;;
69083;SDS011;56185;48.526;9.044;2022-10-31T13:51:05;6.72;;;3.40;;
69083;SDS011;56185;48.526;9.044;2022-10-31T13:53:45;6.63;;;3.22;;
69083;SDS011;56185;48.526;9.044;2022-10-31T13:56:23;7.13;;;3.25;;
69083;SDS011;56185;48.526;9.044;2022-10-31T14:01:45;8.10;;;3.35;;
69083;SDS011;56185;48.526;9.044;2022-10-31T14:06:51;11.18;;;3.58;;
69083;SDS011;56185;48.526;9.044;2022-10-31T14:09:25;8.23;;;3.08;;
69083;SDS011;56185;48.526;9.044;2022-10-31T14:11:51;5.82;;;3.42;;
69083;SDS011;56185;48.526;9.044;2022-10-31T14:14:17;8.95;;;3.47;;
69083;SDS011;56185;48.526;9.044;2022-10-31T14:16:44;7.65;;;3.22;;
69083;SDS011;56185;48.526;9.044;2022-10-31T14:19:14;8.00;;;3.50;;
69083;SDS011;56185;48.526;9.044;2022-10-31T14:21:43;8.15;;;3.50;;
69083;SDS011;56185;48.526;9.044;2022-10-31T14:29:28;7.30;;;2.95;;
69083;SDS011;56185;48.526;9.044;2022-10-31T14:32:19;10.13;;;3.17;;
69083;SDS011;56185;48.526;9.044;2022-10-31T14:40:07;7.72;;;3.30;;
69083;SDS011;56185;48.526;9.044;2022-10-31T14:43:02;8.77;;;3.10;;
69083;SDS011;56185;48.526;9.044;2022-10-31T14:50:52;10.68;;;3.47;;
69083;SDS011;56185;48.526;9.044;2022-10-31T14:53:22;11.43;;;3.80;;
69083;SDS011;56185;48.526;9.044;2022-10-31T14:55:52;8.90;;;4.20;;
69083;SDS011;56185;48.526;9.044;2022-10-31T14:58:20;8.57;;;4.45;;
69083;SDS011;56185;48.526;9.044;2022-10-31T15:00:49;9.35;;;4.70;;
69083;SDS011;56185;48.526;9.044;2022-10-31T15:05:56;9.55;;;4.68;;
69083;SDS011;56185;48.526;9.044;2022-10-31T15:08:27;8.20;;;4.05;;
69083;SDS011;56185;48.526;9.044;2022-10-31T15:10:59;11.20;;;3.70;;
69083;SDS011;56185;48.526;9.044;2022-10-31T15:13:28;6.97;;;3.38;;
69083;SDS011;56185;48.526;9.044;2022-10-31T15:15:54;5.70;;;3.57;;
69083;SDS011;56185;48.526;9.044;2022-10-31T15:18:21;9.07;;;3.90;;
69083;SDS011;56185;48.526;9.044;2022-10-31T15:20:50;9.13;;;3.70;;
69083;SDS011;56185;48.526;9.044;2022-10-31T15:23:18;8.80;;;3.95;;
69083;SDS011;56185;48.526;9.044;2022-10-31T15:26:03;8.65;;;3.88;;
69083;SDS011;56185;48.526;9.044;2022-10-31T15:28:30;8.98;;;3.53;;
69083;SDS011;56185;48.526;9.044;2022-10-31T15:30:57;9.73;;;3.78;;
69083;SDS011;56185;48.526;9.044;2022-10-31T15:33:46;6.13;;;3.58;;
69083;SDS011;56185;48.526;9.044;2022-10-31T15:36:18;7.05;;;4.25;;
69083;SDS011;56185;48.526;9.044;2022-10-31T15:38:44;10.95;;;4.30;;
69083;SDS011;56185;48.526;9.044;2022-10-31T15:41:21;13.57;;;4.18;;
69083;SDS011;56185;48.526;9.044;2022-10-31T15:44:15;6.97;;;3.80;;
69083;SDS011;56185;48.526;9.044;2022-10-31T15:46:44;8.13;;;3.90;;
69083;SDS011;56185;48.526;9.044;2022-10-31T15:49:16;9.40;;;3.88;;
69083;SDS011;56185;48.526;9.044;2022-10-31T15:51:51;8.88;;;3.42;;
69083;SDS011;56185;48.526;9.044;2022-10-31T15:54:16;10.50;;;4.05;;
69083;SDS011;56185;48.526;9.044;2022-10-31T15:56:42;12.30;;;4.22;;
69083;SDS011;56185;48.526;9.044;2022-10-31T15:59:11;10.20;;;3.83;;
69083;SDS011;56185;48.526;9.044;2022-10-31T16:01:53;8.95;;;3.60;;
69083;SDS011;56185;48.526;9.044;2022-10-31T16:04:28;10.88;;;4.00;;
69083;SDS011;56185;48.526;9.044;2022-10-31T16:07:00;8.80;;;4.10;;
69083;SDS011;56185;48.526;9.044;2022-10-31T16:09:27;9.07;;;4.00;;
69083;SDS011;56185;48.526;9.044;2022-10-31T16:11:53;9.32;;;4.40;;
69083;SDS011;56185;48.526;9.044;2022-10-31T16:14:25;7.07;;;3.78;;
69083;SDS011;56185;48.526;9.044;2022-10-31T16:16:53;10.52;;;3.70;;
69083;SDS011;56185;48.526;9.044;2022-10-31T16:19:27;9.50;;;3.95;;
69083;SDS011;56185;48.526;9.044;2022-10-31T16:27:37;6.80;;;3.53;;
69083;SDS011;56185;48.526;9.044;2022-10-31T16:30:27;9.65;;;3.90;;
69083;SDS011;56185;48.526;9.044;2022-10-31T16:33:01;8.45;;;4.00;;
69083;SDS011;56185;48.526;9.044;2022-10-31T16:35:34;8.63;;;3.83;;
69083;SDS011;56185;48.526;9.044;2022-10-31T16:38:01;7.63;;;3.97;;
69083;SDS011;56185;48.526;9.044;2022-10-31T16:40:27;6.85;;;3.58;;
69083;SDS011;56185;48.526;9.044;2022-10-31T16:42:53;7.47;;;3.60;;
69083;SDS011;56185;48.526;9.044;2022-10-31T16:45:21;8.90;;;4.32;;
69083;SDS011;56185;48.526;9.044;2022-10-31T16:47:49;12.38;;;4.53;;
69083;SDS011;56185;48.526;9.044;2022-10-31T16:50:15;11.48;;;4.18;;
69083;SDS011;56185;48.526;9.044;2022-10-31T16:52:59;13.55;;;4.88;;
69083;SDS011;56185;48.526;9.044;2022-10-31T16:58:25;28.10;;;17.08;;
69083;SDS011;56185;48.526;9.044;2022-10-31T17:00:53;19.15;;;10.90;;
69083;SDS011;56185;48.526;9.044;2022-10-31T17:03:18;15.57;;;7.07;;
69083;SDS011;56185;48.526;9.044;2022-10-31T17:05:43;12.00;;;5.22;;
69083;SDS011;56185;48.526;9.044;2022-10-31T17:08:09;11.13;;;4.50;;
69083;SDS011;56185;48.526;9.044;2022-10-31T17:10:34;10.63;;;5.10;;
69083;SDS011;56185;48.526;9.044;2022-10-31T17:13:00;11.20;;;4.43;;
69083;SDS011;56185;48.526;9.044;2022-10-31T17:15:28;8.45;;;4.18;;
69083;SDS011;56185;48.526;9.044;2022-10-31T17:17:56;14.63;;;7.97;;